Time;durP1;ratioP1;P1;durP2;ratioP2;P2;SDS_P1;SDS_P2;PMS_P1;PMS_P2;Temp;Humidity;BMP_temperature;BMP_pressure;BME280_temperature;BME280_humidity;BME280_pressure;Samples;Min_cycle;Max_cycle;Signal;HPM_P1;HPM_P2
2023/03/12 00:02:08;;;;;;;12.70;6.47;;;2.00;99.90;;;;;;5051177;28;20621;-68
2023/03/12 00:04:57;;;;;;;10.97;6.70;;;1.90;99.90;;;;;;5050763;28;20222;-67
2023/03/12 00:07:46;;;;;;;12.17;6.80;;;2.00;99.90;;;;;;5053903;28;20311;-68
2023/03/12 00:10:35;;;;;;;12.70;7.10;;;1.80;99.90;;;;;;5065533;28;20226;-66
2023/03/12 00:13:24;;;;;;;14.23;7.20;;;2.10;99.90;;;;;;5062470;28;20246;-68
2023/03/12 00:16:15;;;;;;;12.50;7.53;;;2.00;99.90;;;;;;5038361;28;20235;-66
2023/03/12 00:19:04;;;;;;;12.10;7.20;;;2.00;99.90;;;;;;5049375;28;20683;-67
2023/03/12 00:21:53;;;;;;;13.90;8.23;;;1.90;99.90;;;;;;5060097;28;20563;-67
2023/03/12 00:24:42;;;;;;;13.90;8.00;;;2.10;99.90;;;;;;5049388;28;20225;-67
2023/03/12 00:27:31;;;;;;;14.53;8.73;;;2.10;99.90;;;;;;5064842;28;20669;-67
2023/03/12 00:30:20;;;;;;;19.00;10.60;;;2.20;99.90;;;;;;5062824;28;20254;-67
2023/03/12 00:33:11;;;;;;;20.07;10.97;;;2.20;99.90;;;;;;5046538;28;20312;-68
2023/03/12 00:36:01;;;;;;;20.70;13.37;;;2.10;99.90;;;;;;5042361;28;20218;-66
2023/03/12 00:38:49;;;;;;;15.60;9.97;;;2.20;99.90;;;;;;5044088;28;20873;-67
2023/03/12 00:41:38;;;;;;;15.33;9.17;;;2.10;99.90;;;;;;5047750;28;20239;-66
2023/03/12 00:44:27;;;;;;;19.53;9.93;;;2.10;99.90;;;;;;5047926;28;20231;-69
2023/03/12 00:47:16;;;;;;;15.23;9.30;;;2.10;99.90;;;;;;5061492;28;20242;-68
2023/03/12 00:50:07;;;;;;;15.03;10.00;;;2.00;99.90;;;;;;5058774;28;20769;-66
2023/03/12 00:52:56;;;;;;;14.80;9.33;;;1.90;99.90;;;;;;5054968;28;20269;-66
2023/03/12 00:55:45;;;;;;;14.67;9.17;;;2.00;99.90;;;;;;5061797;28;20279;-68
2023/03/12 00:58:34;;;;;;;15.30;9.67;;;2.00;99.90;;;;;;5062064;28;20717;-67
2023/03/12 01:01:23;;;;;;;16.20;10.03;;;2.00;99.90;;;;;;5042430;28;20318;-67
2023/03/12 01:04:12;;;;;;;14.20;10.00;;;2.10;99.90;;;;;;5047783;28;20800;-65
2023/03/12 01:07:02;;;;;;;14.70;9.83;;;2.20;99.90;;;;;;5050995;28;20307;-66
2023/03/12 01:09:51;;;;;;;17.17;11.47;;;2.10;99.90;;;;;;5064013;28;20274;-67
2023/03/12 01:12:40;;;;;;;19.47;10.83;;;2.00;99.90;;;;;;5058743;28;20299;-66
2023/03/12 01:15:29;;;;;;;16.73;11.67;;;2.10;99.90;;;;;;5048168;28;20246;-66
2023/03/12 01:18:18;;;;;;;17.70;11.30;;;2.00;99.90;;;;;;5060453;28;20265;-66
2023/03/12 01:21:07;;;;;;;19.47;11.57;;;1.90;99.90;;;;;;5058722;28;20230;-67
2023/03/12 01:23:57;;;;;;;17.70;10.53;;;2.10;99.90;;;;;;5063696;28;20234;-67
2023/03/12 01:26:46;;;;;;;16.93;11.00;;;2.10;99.90;;;;;;5052132;28;20222;-67
2023/03/12 01:29:35;;;;;;;20.40;12.33;;;2.10;99.90;;;;;;5036737;28;20223;-66
2023/03/12 01:32:24;;;;;;;18.53;11.80;;;2.10;99.90;;;;;;5042127;28;20243;-68
2023/03/12 01:35:13;;;;;;;22.17;12.67;;;2.10;99.90;;;;;;5039332;28;20888;-67
2023/03/12 01:38:02;;;;;;;19.10;11.33;;;2.00;99.90;;;;;;5058633;28;20792;-66
2023/03/12 01:40:52;;;;;;;17.40;11.33;;;2.10;99.90;;;;;;5046020;28;20225;-68
2023/03/12 01:43:41;;;;;;;16.43;10.20;;;2.10;99.90;;;;;;5046715;28;20231;-67
2023/03/12 01:46:33;;;;;;;18.13;11.00;;;2.20;99.90;;;;;;5033830;28;20598;-67
2023/03/12 01:49:32;;;;;;;19.30;11.80;;;2.20;99.90;;;;;;5055772;28;20234;-66
2023/03/12 01:52:24;;;;;;;19.07;11.40;;;2.30;99.90;;;;;;5041617;28;20245;-67
2023/03/12 01:55:17;;;;;;;22.30;11.73;;;2.30;99.90;;;;;;5036129;28;20267;-67
2023/03/12 01:58:09;;;;;;;22.07;11.67;;;2.30;99.90;;;;;;5041399;28;20740;-66
2023/03/12 02:00:59;;;;;;;19.03;11.60;;;2.30;99.90;;;;;;5045565;28;20235;-67
2023/03/12 02:03:51;;;;;;;21.30;11.93;;;2.20;99.90;;;;;;5053242;28;20272;-66
2023/03/12 02:06:48;;;;;;;17.87;10.73;;;2.20;99.90;;;;;;5061823;28;20215;-67
2023/03/12 02:09:41;;;;;;;19.90;11.53;;;2.20;99.90;;;;;;5043837;28;20607;-69
2023/03/12 02:12:29;;;;;;;16.73;11.23;;;2.30;99.90;;;;;;5060534;28;20300;-66
2023/03/12 02:15:20;;;;;;;16.43;10.43;;;2.30;99.90;;;;;;5046889;28;20261;-69
2023/03/12 02:18:13;;;;;;;16.90;10.60;;;2.50;99.90;;;;;;5050241;28;20853;-68
2023/03/12 02:21:13;;;;;;;28.67;17.83;;;2.40;99.90;;;;;;5059502;28;20225;-66
2023/03/12 02:24:11;;;;;;;17.70;10.93;;;2.40;99.90;;;;;;5060323;28;20584;-69
2023/03/12 02:27:02;;;;;;;18.23;9.87;;;2.30;99.90;;;;;;5059984;28;20222;-67
2023/03/12 02:29:51;;;;;;;14.33;9.23;;;2.30;99.90;;;;;;5046706;28;20228;-66
2023/03/12 02:32:40;;;;;;;14.73;9.23;;;2.40;99.90;;;;;;5044623;28;20360;-66
2023/03/12 02:35:29;;;;;;;13.77;8.60;;;2.30;99.90;;;;;;5053866;28;20230;-67
2023/03/12 02:38:34;;;;;;;14.83;9.13;;;2.40;99.90;;;;;;5053605;28;20318;-67
2023/03/12 02:41:26;;;;;;;14.00;7.77;;;2.30;99.90;;;;;;5067777;28;20217;-65
2023/03/12 02:44:19;;;;;;;18.53;9.27;;;2.30;99.90;;;;;;5060981;28;20909;-67
2023/03/12 02:47:11;;;;;;;18.63;8.63;;;2.40;99.90;;;;;;5047405;28;20227;-65
2023/03/12 02:49:59;;;;;;;13.37;7.87;;;2.30;99.90;;;;;;5045472;28;20242;-65
2023/03/12 02:52:48;;;;;;;14.60;8.47;;;2.30;99.90;;;;;;5045976;28;20591;-66
2023/03/12 02:55:37;;;;;;;13.90;8.03;;;2.30;99.90;;;;;;5060351;28;20968;-67
2023/03/12 02:58:26;;;;;;;14.23;8.17;;;2.20;99.90;;;;;;5041930;28;20229;-65
2023/03/12 03:01:17;;;;;;;12.43;8.00;;;2.30;99.90;;;;;;5061457;28;20226;-66
2023/03/12 03:04:08;;;;;;;11.07;7.50;;;2.20;99.90;;;;;;5052933;28;20289;-66
2023/03/12 03:06:57;;;;;;;13.13;7.73;;;2.20;99.90;;;;;;5063967;28;20258;-66
2023/03/12 03:09:46;;;;;;;11.53;7.37;;;2.10;99.90;;;;;;5045192;28;20234;-66
2023/03/12 03:12:36;;;;;;;12.37;7.10;;;2.20;99.90;;;;;;5049281;28;20342;-66
2023/03/12 03:15:26;;;;;;;14.00;7.40;;;2.10;99.90;;;;;;5061447;28;20283;-66
2023/03/12 03:18:16;;;;;;;11.60;7.37;;;2.30;99.90;;;;;;5056788;28;20226;-66
2023/03/12 03:21:07;;;;;;;14.53;7.50;;;2.20;99.90;;;;;;5049849;28;20400;-67
2023/03/12 03:23:57;;;;;;;12.23;7.77;;;2.20;99.90;;;;;;5044814;28;20235;-66
2023/03/12 03:26:46;;;;;;;10.87;6.87;;;2.30;99.90;;;;;;5048796;28;20253;-67
2023/03/12 03:29:35;;;;;;;11.07;7.17;;;2.30;99.90;;;;;;5042257;28;20235;-66
2023/03/12 03:32:24;;;;;;;11.03;6.37;;;2.20;99.90;;;;;;5050657;28;20479;-66
2023/03/12 03:35:14;;;;;;;12.73;6.87;;;2.30;99.90;;;;;;5041408;28;20576;-67
2023/03/12 03:38:03;;;;;;;9.73;6.90;;;2.30;99.90;;;;;;5042436;28;20234;-66
2023/03/12 03:40:52;;;;;;;10.87;6.93;;;2.40;99.90;;;;;;5066915;28;20713;-67
2023/03/12 03:43:41;;;;;;;9.43;6.63;;;2.50;99.90;;;;;;5043590;28;20324;-66
2023/03/12 03:46:31;;;;;;;12.90;7.03;;;2.40;99.90;;;;;;5043442;28;20299;-67
2023/03/12 03:49:23;;;;;;;13.20;7.77;;;2.40;99.90;;;;;;5048528;28;20610;-66
2023/03/12 03:52:13;;;;;;;12.70;6.87;;;2.10;99.90;;;;;;5050985;28;20243;-67
2023/03/12 03:55:02;;;;;;;10.03;6.67;;;2.20;99.90;;;;;;5064703;28;20303;-67
2023/03/12 03:57:52;;;;;;;14.57;7.17;;;2.30;99.90;;;;;;5050455;28;20207;-65
2023/03/12 04:00:43;;;;;;;13.33;7.37;;;2.20;99.90;;;;;;5064292;28;20579;-65
2023/03/12 04:03:32;;;;;;;9.03;6.73;;;2.30;99.90;;;;;;5068225;28;20322;-66
2023/03/12 04:06:22;;;;;;;13.37;7.30;;;2.30;99.90;;;;;;5051219;28;20237;-68
2023/03/12 04:09:13;;;;;;;12.70;7.17;;;2.30;99.90;;;;;;5049411;28;20241;-66
2023/03/12 04:12:02;;;;;;;11.70;7.07;;;2.30;99.90;;;;;;5061725;28;21051;-68
2023/03/12 04:14:51;;;;;;;13.17;8.10;;;2.40;99.90;;;;;;5047227;28;20281;-66
2023/03/12 04:17:40;;;;;;;12.07;7.73;;;2.20;99.90;;;;;;5052691;28;20310;-67
2023/03/12 04:20:29;;;;;;;11.90;7.20;;;2.20;99.90;;;;;;5054601;28;20247;-66
2023/03/12 04:23:18;;;;;;;14.60;6.83;;;2.20;99.90;;;;;;5063070;28;20243;-70
2023/03/12 04:26:08;;;;;;;12.97;6.93;;;2.40;99.90;;;;;;5052672;28;20318;-68
2023/03/12 04:28:57;;;;;;;11.60;7.53;;;2.50;99.90;;;;;;5046679;28;20278;-68
2023/03/12 04:31:46;;;;;;;11.53;7.43;;;2.40;99.90;;;;;;5049645;28;20634;-66
2023/03/12 04:34:35;;;;;;;10.13;7.50;;;2.50;99.90;;;;;;5045254;28;20713;-66
2023/03/12 04:37:24;;;;;;;13.10;6.97;;;2.60;99.90;;;;;;5063210;28;20233;-67
2023/03/12 04:40:14;;;;;;;10.30;6.73;;;2.70;99.90;;;;;;5061815;28;20742;-67
2023/03/12 04:43:04;;;;;;;12.20;6.43;;;2.70;99.90;;;;;;5056947;28;20223;-67
2023/03/12 04:45:53;;;;;;;12.03;7.57;;;2.70;99.90;;;;;;5042556;28;20750;-68
2023/03/12 04:48:42;;;;;;;11.37;6.50;;;2.70;99.90;;;;;;5056282;28;20370;-66
2023/03/12 04:51:32;;;;;;;11.60;6.90;;;2.60;99.90;;;;;;5049686;28;20681;-66
2023/03/12 04:54:23;;;;;;;11.53;6.30;;;2.70;99.90;;;;;;5048077;28;20239;-67
2023/03/12 04:57:12;;;;;;;9.97;6.20;;;2.70;99.90;;;;;;5043674;28;20230;-67
2023/03/12 05:00:09;;;;;;;10.70;5.83;;;2.80;99.90;;;;;;5046533;28;20258;-66
2023/03/12 05:02:58;;;;;;;9.33;5.40;;;2.80;99.90;;;;;;5061844;28;20329;-66
2023/03/12 05:05:48;;;;;;;9.37;5.97;;;2.90;99.90;;;;;;5044638;28;20218;-66
2023/03/12 05:08:36;;;;;;;10.33;6.00;;;2.90;99.90;;;;;;5055577;28;20238;-66
2023/03/12 05:11:25;;;;;;;11.47;6.70;;;2.80;99.90;;;;;;5044265;28;20283;-66
2023/03/12 05:14:15;;;;;;;12.77;7.03;;;2.70;99.90;;;;;;5062526;28;20238;-66
2023/03/12 05:17:07;;;;;;;9.47;6.47;;;2.80;99.90;;;;;;5052277;28;20229;-66
2023/03/12 05:19:57;;;;;;;9.00;5.87;;;2.70;99.90;;;;;;5060130;28;20231;-67
2023/03/12 05:22:46;;;;;;;8.63;6.63;;;2.80;99.90;;;;;;5043724;28;20237;-67
2023/03/12 05:25:39;;;;;;;12.30;5.77;;;2.80;99.90;;;;;;5047518;28;20231;-66
2023/03/12 05:28:29;;;;;;;11.37;6.50;;;2.80;99.90;;;;;;5040242;28;20592;-67
2023/03/12 05:31:21;;;;;;;12.83;6.53;;;2.80;99.90;;;;;;5055051;28;20230;-67
2023/03/12 05:34:14;;;;;;;10.63;5.90;;;2.80;99.90;;;;;;5040199;28;20294;-66
2023/03/12 05:37:05;;;;;;;10.87;6.40;;;2.80;99.90;;;;;;5054014;28;20223;-67
2023/03/12 05:39:54;;;;;;;10.13;6.87;;;2.90;99.90;;;;;;5044750;28;20246;-67
2023/03/12 05:42:43;;;;;;;9.30;6.00;;;2.90;99.90;;;;;;5057708;28;20264;-67
2023/03/12 05:45:33;;;;;;;11.63;6.57;;;2.80;99.90;;;;;;5047746;28;20223;-68
2023/03/12 05:48:21;;;;;;;13.37;7.23;;;2.80;99.90;;;;;;5061335;28;20325;-67
2023/03/12 05:51:12;;;;;;;12.17;6.03;;;3.00;99.90;;;;;;5057096;28;20284;-66
2023/03/12 05:54:01;;;;;;;11.30;5.90;;;2.90;99.90;;;;;;5058981;28;20233;-66
2023/03/12 05:56:50;;;;;;;11.27;7.10;;;2.90;99.90;;;;;;5037491;28;20238;-66
2023/03/12 05:59:40;;;;;;;11.07;6.77;;;2.80;99.90;;;;;;5058650;28;20236;-69
2023/03/12 06:02:29;;;;;;;16.77;8.23;;;2.80;99.90;;;;;;5056613;28;20310;-66
2023/03/12 06:05:19;;;;;;;9.20;5.83;;;2.70;99.90;;;;;;5055501;28;20221;-66
2023/03/12 06:08:09;;;;;;;11.83;5.67;;;2.80;99.90;;;;;;5058558;28;20286;-67
2023/03/12 06:10:59;;;;;;;12.40;6.23;;;2.90;99.90;;;;;;5042476;28;20318;-66
2023/03/12 06:13:48;;;;;;;11.77;6.70;;;2.80;99.90;;;;;;5050310;28;20301;-66
2023/03/12 06:16:38;;;;;;;9.40;5.77;;;3.00;99.90;;;;;;5050914;28;20984;-65
2023/03/12 06:19:27;;;;;;;12.00;5.80;;;3.10;99.90;;;;;;5058367;28;20230;-66
2023/03/12 06:22:16;;;;;;;9.10;5.50;;;3.00;99.90;;;;;;5063362;28;20232;-65
2023/03/12 06:25:07;;;;;;;12.47;6.20;;;3.00;99.90;;;;;;5050432;28;20721;-66
2023/03/12 06:27:56;;;;;;;12.47;5.70;;;3.00;99.90;;;;;;5063217;28;20243;-66
2023/03/12 06:30:45;;;;;;;8.23;5.10;;;3.10;99.90;;;;;;5044041;28;20246;-66
2023/03/12 06:33:34;;;;;;;8.90;5.03;;;3.20;99.90;;;;;;5046179;28;20227;-66
2023/03/12 06:36:23;;;;;;;7.67;4.97;;;3.20;99.90;;;;;;5040458;28;20238;-67
2023/03/12 06:39:12;;;;;;;10.70;5.40;;;3.30;99.90;;;;;;5053941;28;20227;-67
2023/03/12 06:42:02;;;;;;;8.73;4.80;;;3.40;99.90;;;;;;5059941;28;20291;-67
2023/03/12 06:44:52;;;;;;;7.93;4.93;;;3.40;99.90;;;;;;5060707;28;20235;-66
2023/03/12 06:47:41;;;;;;;13.67;6.67;;;3.50;99.90;;;;;;5053059;28;20232;-67
2023/03/12 06:50:29;;;;;;;8.47;4.37;;;3.40;99.90;;;;;;5057974;28;20316;-67
2023/03/12 06:53:19;;;;;;;8.47;4.40;;;3.40;99.90;;;;;;5060756;28;20302;-67
2023/03/12 06:56:08;;;;;;;10.63;4.93;;;3.30;99.90;;;;;;5057506;28;20226;-67
2023/03/12 06:58:58;;;;;;;10.17;5.10;;;3.20;99.90;;;;;;5061479;28;20246;-66
2023/03/12 07:01:47;;;;;;;9.70;4.87;;;3.20;99.90;;;;;;5046733;28;20228;-67
2023/03/12 07:04:36;;;;;;;7.23;4.43;;;3.40;99.90;;;;;;5059577;28;20615;-66
2023/03/12 07:07:24;;;;;;;9.53;4.53;;;3.20;99.90;;;;;;5041796;28;20323;-67
2023/03/12 07:10:13;;;;;;;11.57;4.93;;;3.40;99.90;;;;;;5047411;28;20284;-66
2023/03/12 07:13:02;;;;;;;6.70;4.60;;;3.40;99.90;;;;;;5057719;28;20232;-68
2023/03/12 07:15:52;;;;;;;6.97;4.70;;;3.30;99.90;;;;;;5047819;28;20229;-67
2023/03/12 07:18:41;;;;;;;8.13;4.87;;;3.40;99.90;;;;;;5041642;28;20249;-67
2023/03/12 07:21:30;;;;;;;9.07;5.10;;;3.30;99.90;;;;;;5057049;28;20224;-68
2023/03/12 07:24:19;;;;;;;9.43;5.20;;;3.40;99.90;;;;;;5042457;28;20257;-66
2023/03/12 07:27:08;;;;;;;9.70;5.00;;;3.40;99.90;;;;;;5045834;28;20234;-67
2023/03/12 07:29:57;;;;;;;10.97;5.07;;;3.40;99.90;;;;;;5042824;28;20239;-67
2023/03/12 07:32:47;;;;;;;8.20;5.03;;;3.40;99.90;;;;;;5061010;28;20250;-67
2023/03/12 07:35:37;;;;;;;8.57;4.43;;;3.50;99.90;;;;;;5037849;28;20237;-67
2023/03/12 07:38:26;;;;;;;9.43;4.67;;;3.50;99.90;;;;;;5042526;28;20927;-67
2023/03/12 07:41:15;;;;;;;10.37;4.80;;;3.50;99.90;;;;;;5032806;28;20290;-66
2023/03/12 07:44:04;;;;;;;9.43;4.23;;;3.90;99.90;;;;;;5060725;28;20619;-68
2023/03/12 07:46:53;;;;;;;7.10;4.03;;;3.90;99.90;;;;;;5039397;28;20761;-67
2023/03/12 07:49:43;;;;;;;8.17;4.27;;;3.80;99.90;;;;;;5061559;28;20236;-67
2023/03/12 07:52:33;;;;;;;7.20;4.07;;;4.10;99.90;;;;;;5057295;28;20224;-67
2023/03/12 07:55:22;;;;;;;7.07;3.83;;;4.20;99.90;;;;;;5065391;28;20224;-67
2023/03/12 07:58:11;;;;;;;8.37;3.43;;;4.30;99.90;;;;;;5048295;28;20514;-66
2023/03/12 08:01:00;;;;;;;7.10;3.30;;;4.20;99.90;;;;;;5058043;28;20229;-67
2023/03/12 08:03:49;;;;;;;6.37;3.20;;;4.30;99.90;;;;;;5046978;28;20232;-68
2023/03/12 08:06:41;;;;;;;7.57;3.30;;;4.90;99.90;;;;;;5046304;28;20233;-66
2023/03/12 08:09:31;;;;;;;5.50;3.30;;;5.10;99.90;;;;;;5047170;28;20221;-67
2023/03/12 08:12:19;;;;;;;6.23;3.00;;;5.80;99.90;;;;;;5027281;28;20217;-67
2023/03/12 08:15:11;;;;;;;7.43;3.30;;;6.30;99.90;;;;;;5044905;28;20340;-68
2023/03/12 08:18:00;;;;;;;5.37;2.77;;;6.60;99.90;;;;;;5056373;28;20225;-68
2023/03/12 08:20:51;;;;;;;4.40;2.83;;;6.60;99.90;;;;;;5038369;28;20241;-65
2023/03/12 08:23:41;;;;;;;6.77;2.70;;;7.40;99.90;;;;;;5047913;28;20216;-66
2023/03/12 08:26:30;;;;;;;4.10;2.30;;;7.10;99.90;;;;;;5044922;28;20244;-66
2023/03/12 08:29:19;;;;;;;3.67;1.90;;;6.70;99.90;;;;;;5043076;28;20236;-67
2023/03/12 08:32:09;;;;;;;5.10;2.10;;;6.80;99.90;;;;;;5043190;28;20224;-67
2023/03/12 08:34:58;;;;;;;5.33;2.27;;;7.80;99.90;;;;;;5034234;28;20221;-66
2023/03/12 08:37:47;;;;;;;3.43;1.90;;;7.20;99.90;;;;;;5029900;28;20225;-66
2023/03/12 08:40:37;;;;;;;5.37;2.00;;;6.60;99.90;;;;;;5032808;28;20754;-66
2023/03/12 08:43:27;;;;;;;5.10;1.90;;;5.80;99.90;;;;;;5033534;28;20229;-67
2023/03/12 08:46:17;;;;;;;4.27;1.90;;;5.70;99.90;;;;;;5014889;28;20235;-67
2023/03/12 08:49:05;;;;;;;3.90;2.10;;;6.20;99.90;;;;;;5040813;28;20218;-67
2023/03/12 08:51:54;;;;;;;3.33;2.00;;;6.50;99.90;;;;;;5038956;28;20252;-66
2023/03/12 08:54:43;;;;;;;5.83;2.17;;;7.00;99.90;;;;;;5040570;28;20727;-67
2023/03/12 08:57:33;;;;;;;5.90;2.03;;;6.70;99.90;;;;;;5039661;28;20217;-66
2023/03/12 09:00:23;;;;;;;4.80;2.20;;;6.40;99.90;;;;;;5040677;28;20331;-66
2023/03/12 09:03:13;;;;;;;5.10;2.37;;;6.20;99.90;;;;;;5052547;28;20270;-66
2023/03/12 09:06:04;;;;;;;5.50;2.90;;;6.80;99.90;;;;;;5062369;28;20224;-67
2023/03/12 09:08:53;;;;;;;5.57;2.67;;;7.10;99.90;;;;;;5039900;28;20310;-68
2023/03/12 09:11:42;;;;;;;5.67;2.40;;;6.90;99.90;;;;;;5060220;28;20240;-67
2023/03/12 09:14:32;;;;;;;4.77;2.57;;;6.80;99.90;;;;;;5060196;28;20466;-67
2023/03/12 09:17:41;;;;;;;5.03;1.87;;;6.20;99.90;;;;;;5059727;28;20232;-67
2023/03/12 09:20:30;;;;;;;4.60;1.77;;;6.00;99.90;;;;;;5045929;28;20234;-68
2023/03/12 09:23:19;;;;;;;2.97;1.60;;;6.00;99.90;;;;;;5056830;28;20224;-68
2023/03/12 09:26:10;;;;;;;4.33;1.73;;;5.80;99.90;;;;;;5056142;28;20235;-68
2023/03/12 09:28:58;;;;;;;4.90;1.67;;;5.90;99.90;;;;;;5042026;28;20223;-68
2023/03/12 09:31:48;;;;;;;3.83;1.50;;;5.90;99.90;;;;;;5060950;28;20236;-67
2023/03/12 09:34:37;;;;;;;3.60;1.70;;;5.70;99.90;;;;;;5054178;28;20225;-65
2023/03/12 09:37:26;;;;;;;5.93;1.60;;;5.90;99.90;;;;;;5047858;28;20220;-66
2023/03/12 09:40:18;;;;;;;2.73;1.67;;;5.70;99.90;;;;;;5038876;28;20239;-66
2023/03/12 09:43:22;;;;;;;4.20;1.50;;;5.50;99.90;;;;;;5062409;28;20231;-66
2023/03/12 09:46:15;;;;;;;3.83;1.50;;;5.50;99.90;;;;;;5057310;28;20713;-70
2023/03/12 09:49:13;;;;;;;3.43;1.60;;;5.90;99.90;;;;;;5042002;28;20224;-67
2023/03/12 09:52:08;;;;;;;5.13;1.57;;;6.00;99.90;;;;;;5041924;28;20243;-68
2023/03/12 09:55:06;;;;;;;4.83;1.60;;;6.00;99.90;;;;;;5047322;28;20224;-69
2023/03/12 09:57:56;;;;;;;3.90;1.50;;;5.90;99.90;;;;;;5044033;28;20541;-67
2023/03/12 10:00:45;;;;;;;5.57;1.87;;;5.90;99.90;;;;;;5041782;28;20241;-67
2023/03/12 10:04:01;;;;;;;3.17;1.70;;;5.70;99.90;;;;;;5042818;28;20230;-67
2023/03/12 10:06:56;;;;;;;4.93;1.90;;;5.70;99.90;;;;;;5023605;28;20218;-67
2023/03/12 10:10:20;;;;;;;4.33;1.70;;;5.80;99.90;;;;;;5040659;28;20239;-67
2023/03/12 10:13:18;;;;;;;4.63;2.07;;;5.60;99.90;;;;;;5025115;28;20219;-67
2023/03/12 10:16:16;;;;;;;4.40;1.80;;;5.50;99.90;;;;;;5039018;28;20251;-68
2023/03/12 10:19:21;;;;;;;5.70;2.20;;;5.60;99.90;;;;;;5027844;28;20639;-69
2023/03/12 10:22:24;;;;;;;3.60;1.80;;;5.70;99.90;;;;;;5020304;28;20233;-66
2023/03/12 10:25:20;;;;;;;4.33;1.73;;;5.60;99.90;;;;;;5036224;28;20232;-67
2023/03/12 10:28:17;;;;;;;5.03;1.80;;;5.70;99.90;;;;;;5037933;28;20220;-67
2023/03/12 10:31:12;;;;;;;4.87;2.00;;;5.60;99.90;;;;;;5016542;28;20236;-69
2023/03/12 10:34:11;;;;;;;7.10;1.87;;;5.60;99.90;;;;;;5040721;28;20217;-67
2023/03/12 10:37:05;;;;;;;4.60;1.97;;;5.50;99.90;;;;;;5026188;28;21192;-66
2023/03/12 10:39:58;;;;;;;6.77;2.13;;;5.40;99.90;;;;;;5039013;28;20229;-69
2023/03/12 10:42:47;;;;;;;6.40;2.10;;;5.40;99.90;;;;;;5017230;28;20300;-67
2023/03/12 10:45:42;;;;;;;8.87;2.37;;;5.30;99.90;;;;;;5042701;28;21065;-67
2023/03/12 10:48:31;;;;;;;4.73;1.87;;;5.30;99.90;;;;;;5040818;28;20235;-68
2023/03/12 10:51:19;;;;;;;5.23;1.90;;;5.40;99.90;;;;;;5027720;28;20220;-67
2023/03/12 10:54:21;;;;;;;3.90;1.80;;;5.50;99.90;;;;;;5041711;28;20242;-67
2023/03/12 10:57:14;;;;;;;6.60;2.10;;;5.40;99.90;;;;;;5033588;28;20256;-68
2023/03/12 11:00:10;;;;;;;8.93;2.03;;;5.30;99.90;;;;;;5034265;28;20709;-67
2023/03/12 11:03:02;;;;;;;7.73;2.57;;;5.50;99.90;;;;;;5027855;28;21073;-67
2023/03/12 11:05:54;;;;;;;5.93;2.60;;;5.40;99.90;;;;;;5018978;28;20227;-67
2023/03/12 11:09:02;;;;;;;5.73;2.17;;;5.70;99.90;;;;;;5014656;28;20221;-67
2023/03/12 11:12:25;;;;;;;6.90;2.00;;;5.90;99.90;;;;;;5041175;28;20228;-66
2023/03/12 11:15:21;;;;;;;8.03;2.07;;;6.10;99.90;;;;;;5037186;28;20373;-66
2023/03/12 11:18:32;;;;;;;4.87;2.20;;;6.00;99.90;;;;;;5042120;28;20260;-70
2023/03/12 11:21:22;;;;;;;6.17;2.00;;;5.80;99.90;;;;;;5031645;28;20228;-67
2023/03/12 11:24:13;;;;;;;5.50;2.23;;;5.80;99.90;;;;;;5044341;28;20299;-67
2023/03/12 11:27:06;;;;;;;2.47;1.43;;;5.80;99.90;;;;;;5049082;28;20776;-68
2023/03/12 11:29:56;;;;;;;4.17;1.73;;;5.80;99.90;;;;;;5028743;28;20230;-68
2023/03/12 11:32:47;;;;;;;4.70;1.90;;;5.70;99.90;;;;;;5046636;28;20306;-68
2023/03/12 11:35:45;;;;;;;6.43;1.73;;;5.70;99.90;;;;;;5053027;28;20225;-68
2023/03/12 11:38:40;;;;;;;4.30;1.60;;;5.70;99.90;;;;;;5045708;28;20244;-67
2023/03/12 11:41:42;;;;;;;10.13;2.00;;;5.80;99.90;;;;;;5038927;28;20918;-68
2023/03/12 11:44:38;;;;;;;4.60;1.73;;;5.90;99.90;;;;;;5026279;28;20477;-67
2023/03/12 11:47:47;;;;;;;4.57;1.77;;;6.20;99.90;;;;;;5043566;28;20744;-68
2023/03/12 11:50:50;;;;;;;5.87;2.20;;;6.10;99.90;;;;;;5016608;28;20224;-67
2023/03/12 11:53:55;;;;;;;5.53;2.10;;;6.20;99.90;;;;;;5036330;28;20232;-69
2023/03/12 11:56:49;;;;;;;5.60;1.67;;;6.20;99.90;;;;;;5044953;28;20209;-68
2023/03/12 11:59:49;;;;;;;3.97;1.67;;;6.50;99.90;;;;;;5012226;28;20941;-65
2023/03/12 12:03:13;;;;;;;4.87;1.90;;;6.60;99.90;;;;;;5041261;28;20275;-67
2023/03/12 12:06:07;;;;;;;6.63;1.80;;;6.60;99.90;;;;;;5025666;28;20232;-65
2023/03/12 12:09:11;;;;;;;8.63;1.67;;;6.70;99.90;;;;;;5033452;28;20225;-66
2023/03/12 12:12:13;;;;;;;4.37;2.10;;;6.80;99.90;;;;;;5032046;28;20954;-71
2023/03/12 12:15:14;;;;;;;3.23;1.57;;;6.70;99.90;;;;;;5041363;28;20272;-68
2023/03/12 12:18:24;;;;;;;7.30;2.13;;;6.70;99.90;;;;;;5044902;28;20334;-68
2023/03/12 12:21:27;;;;;;;8.97;1.73;;;6.50;99.90;;;;;;5031505;28;20233;-67
2023/03/12 12:24:28;;;;;;;7.00;2.63;;;6.50;99.90;;;;;;5022240;28;20233;-67
2023/03/12 12:27:21;;;;;;;8.50;3.17;;;6.70;99.90;;;;;;5036050;28;20241;-66
2023/03/12 12:30:18;;;;;;;7.60;2.40;;;6.60;99.90;;;;;;5039069;28;20272;-67
2023/03/12 12:33:23;;;;;;;8.60;2.57;;;6.30;99.90;;;;;;5045584;28;20315;-64
2023/03/12 12:36:13;;;;;;;5.77;2.63;;;6.60;99.90;;;;;;5040029;28;20966;-65
2023/03/12 12:39:10;;;;;;;7.43;2.47;;;6.60;99.90;;;;;;5030732;28;20237;-67
2023/03/12 12:42:02;;;;;;;4.77;2.10;;;6.50;99.90;;;;;;5040416;28;20343;-67
2023/03/12 12:44:53;;;;;;;6.13;2.60;;;6.60;99.90;;;;;;5036995;28;20356;-68
2023/03/12 12:47:47;;;;;;;6.13;2.10;;;6.50;99.90;;;;;;5044876;28;20231;-65
2023/03/12 12:50:39;;;;;;;6.77;2.27;;;6.60;99.90;;;;;;5018289;28;20225;-66
2023/03/12 12:53:32;;;;;;;9.13;2.30;;;6.90;99.90;;;;;;5039853;28;20236;-66
2023/03/12 12:56:29;;;;;;;6.53;1.70;;;6.80;99.90;;;;;;5029658;28;20311;-67
2023/03/12 12:59:26;;;;;;;4.50;2.00;;;7.00;99.90;;;;;;5060924;28;20302;-66
2023/03/12 13:02:19;;;;;;;4.37;1.60;;;7.00;99.90;;;;;;5050238;28;20233;-66
2023/03/12 13:05:19;;;;;;;5.70;1.80;;;7.00;99.90;;;;;;5064261;28;20627;-67
2023/03/12 13:08:34;;;;;;;4.10;1.83;;;6.70;99.90;;;;;;5061269;28;20239;-66
2023/03/12 13:11:26;;;;;;;7.77;2.17;;;6.90;99.90;;;;;;5036743;28;20230;-67
2023/03/12 13:14:38;;;;;;;8.17;2.00;;;6.50;99.90;;;;;;5052891;28;20253;-68
2023/03/12 13:17:30;;;;;;;6.03;2.07;;;6.50;99.90;;;;;;5050734;28;21007;-68
2023/03/12 13:20:20;;;;;;;5.90;2.40;;;6.70;99.90;;;;;;5059928;28;20258;-66
2023/03/12 13:23:26;;;;;;;5.53;1.80;;;6.60;99.90;;;;;;5059044;28;20265;-66
2023/03/12 13:26:23;;;;;;;5.77;2.13;;;6.70;99.90;;;;;;5059491;28;20721;-66
2023/03/12 13:29:20;;;;;;;4.60;1.87;;;6.60;99.90;;;;;;5066565;28;20220;-66
2023/03/12 13:32:37;;;;;;;3.60;2.00;;;6.60;99.90;;;;;;5067233;28;20985;-67
2023/03/12 13:35:33;;;;;;;4.43;1.90;;;6.60;99.90;;;;;;5058874;28;20225;-65
2023/03/12 13:38:36;;;;;;;3.07;1.80;;;6.40;99.90;;;;;;5052752;28;20686;-65
2023/03/12 13:41:34;;;;;;;4.07;2.00;;;6.40;99.90;;;;;;5054304;28;20219;-65
2023/03/12 13:44:31;;;;;;;3.70;1.60;;;6.60;99.90;;;;;;5062520;28;20228;-67
2023/03/12 13:47:23;;;;;;;6.30;2.20;;;6.60;99.90;;;;;;5057503;28;20274;-65
2023/03/12 13:50:15;;;;;;;6.23;2.00;;;6.50;99.90;;;;;;5067205;28;20250;-65
2023/03/12 13:53:06;;;;;;;4.63;2.00;;;6.40;99.90;;;;;;5055170;28;20295;-67
2023/03/12 13:56:07;;;;;;;6.00;1.77;;;6.40;99.90;;;;;;5063644;28;20232;-66
2023/03/12 13:58:58;;;;;;;5.90;2.30;;;6.60;99.90;;;;;;5057670;28;20220;-66
2023/03/12 14:01:50;;;;;;;4.37;1.90;;;6.30;99.90;;;;;;5056438;28;20882;-66
2023/03/12 14:04:41;;;;;;;3.60;1.57;;;6.30;99.90;;;;;;5050940;28;20228;-68
2023/03/12 14:08:09;;;;;;;4.97;2.10;;;6.30;99.90;;;;;;5038909;28;20244;-65
2023/03/12 14:11:32;;;;;;;8.53;2.57;;;6.20;99.90;;;;;;5064025;28;20291;-66
2023/03/12 14:14:43;;;;;;;4.77;2.10;;;6.30;99.90;;;;;;5055891;28;20231;-66
2023/03/12 14:17:34;;;;;;;8.47;2.10;;;6.10;99.90;;;;;;5067113;28;20222;-66
2023/03/12 14:20:24;;;;;;;7.10;2.60;;;6.00;99.90;;;;;;5060534;28;20286;-66
2023/03/12 14:23:16;;;;;;;5.13;2.40;;;6.10;99.90;;;;;;5066546;28;20236;-66
2023/03/12 14:26:08;;;;;;;5.00;2.27;;;6.00;99.90;;;;;;5047434;28;20223;-66
2023/03/12 14:29:01;;;;;;;5.57;2.40;;;6.10;99.90;;;;;;5058549;28;20975;-64
2023/03/12 14:31:50;;;;;;;5.00;2.00;;;6.00;99.90;;;;;;5056993;28;20240;-67
2023/03/12 14:34:42;;;;;;;5.37;1.77;;;6.00;99.90;;;;;;5064654;28;20226;-67
2023/03/12 14:37:38;;;;;;;6.20;2.20;;;5.90;99.90;;;;;;5047451;28;20535;-66
2023/03/12 14:40:39;;;;;;;5.90;2.40;;;6.00;99.90;;;;;;5060737;28;20268;-65
2023/03/12 14:43:32;;;;;;;4.80;2.00;;;6.00;99.90;;;;;;5058312;28;20236;-65
2023/03/12 14:46:22;;;;;;;3.87;1.83;;;5.90;99.90;;;;;;5057735;28;20228;-65
2023/03/12 14:49:20;;;;;;;4.40;2.03;;;5.70;99.90;;;;;;5055932;28;20228;-66
2023/03/12 14:52:12;;;;;;;5.17;2.00;;;5.60;99.90;;;;;;5055597;28;20238;-66
2023/03/12 14:55:03;;;;;;;5.90;1.83;;;5.60;99.90;;;;;;5045341;28;20533;-66
2023/03/12 14:58:04;;;;;;;8.60;2.00;;;5.60;99.90;;;;;;5057540;28;20333;-65
2023/03/12 15:00:59;;;;;;;4.13;2.10;;;5.50;99.90;;;;;;5058237;28;20251;-65
2023/03/12 15:03:52;;;;;;;4.30;2.30;;;5.60;99.90;;;;;;5056037;28;20335;-66
2023/03/12 15:06:46;;;;;;;5.33;2.20;;;5.60;99.90;;;;;;5047097;28;20229;-66